sensor_id;sensor_type;location;lat;lon;timestamp;temperature;humidity
5560;DHT22;2803;47.916;8.074;2023-02-01T00:01:56;6.70;99.90
5560;DHT22;2803;47.916;8.074;2023-02-01T00:04:22;6.20;99.90
5560;DHT22;2803;47.916;8.074;2023-02-01T00:06:49;6.00;99.90
5560;DHT22;2803;47.916;8.074;2023-02-01T00:09:16;6.30;99.90
5560;DHT22;2803;47.916;8.074;2023-02-01T00:11:42;6.50;99.90
5560;DHT22;2803;47.916;8.074;2023-02-01T00:14:09;6.60;99.90
5560;DHT22;2803;47.916;8.074;2023-02-01T00:16:36;6.50;99.90
5560;DHT22;2803;47.916;8.074;2023-02-01T00:19:06;6.50;99.90
5560;DHT22;2803;47.916;8.074;2023-02-01T00:21:33;6.50;99.90
5560;DHT22;2803;47.916;8.074;2023-02-01T00:24:00;6.50;99.90
5560;DHT22;2803;47.916;8.074;2023-02-01T00:26:30;6.30;99.90
5560;DHT22;2803;47.916;8.074;2023-02-01T00:28:57;6.00;99.90
5560;DHT22;2803;47.916;8.074;2023-02-01T00:31:24;6.10;99.90
5560;DHT22;2803;47.916;8.074;2023-02-01T00:33:51;6.40;99.90
5560;DHT22;2803;47.916;8.074;2023-02-01T00:36:19;6.60;99.90
5560;DHT22;2803;47.916;8.074;2023-02-01T00:38:45;6.70;99.90
5560;DHT22;2803;47.916;8.074;2023-02-01T00:41:13;6.60;99.90
5560;DHT22;2803;47.916;8.074;2023-02-01T00:43:40;6.60;99.90
5560;DHT22;2803;47.916;8.074;2023-02-01T00:46:08;6.60;99.90
5560;DHT22;2803;47.916;8.074;2023-02-01T00:48:34;6.70;99.90
5560;DHT22;2803;47.916;8.074;2023-02-01T00:51:02;6.70;99.90
5560;DHT22;2803;47.916;8.074;2023-02-01T00:53:30;6.70;99.90
5560;DHT22;2803;47.916;8.074;2023-02-01T00:55:57;6.50;99.90
5560;DHT22;2803;47.916;8.074;2023-02-01T00:58:24;6.70;99.90
5560;DHT22;2803;47.916;8.074;2023-02-01T01:01:01;6.70;99.90
5560;DHT22;2803;47.916;8.074;2023-02-01T01:03:28;6.40;99.90
5560;DHT22;2803;47.916;8.074;2023-02-01T01:05:59;6.40;99.90
5560;DHT22;2803;47.916;8.074;2023-02-01T01:08:26;6.40;99.90
5560;DHT22;2803;47.916;8.074;2023-02-01T01:10:53;6.50;99.90
5560;DHT22;2803;47.916;8.074;2023-02-01T01:13:20;6.40;99.90
5560;DHT22;2803;47.916;8.074;2023-02-01T01:15:47;6.60;99.90
5560;DHT22;2803;47.916;8.074;2023-02-01T01:18:13;6.80;99.90
5560;DHT22;2803;47.916;8.074;2023-02-01T01:20:40;6.80;99.90
5560;DHT22;2803;47.916;8.074;2023-02-01T01:23:08;6.80;99.90
5560;DHT22;2803;47.916;8.074;2023-02-01T01:25:37;6.80;99.90
5560;DHT22;2803;47.916;8.074;2023-02-01T01:28:06;6.40;99.90
5560;DHT22;2803;47.916;8.074;2023-02-01T01:30:34;6.40;99.90
5560;DHT22;2803;47.916;8.074;2023-02-01T01:33:00;6.50;99.90
5560;DHT22;2803;47.916;8.074;2023-02-01T01:35:29;6.50;99.90
5560;DHT22;2803;47.916;8.074;2023-02-01T01:37:56;6.60;99.90
5560;DHT22;2803;47.916;8.074;2023-02-01T01:40:23;6.50;99.90
5560;DHT22;2803;47.916;8.074;2023-02-01T01:42:50;6.40;99.90
5560;DHT22;2803;47.916;8.074;2023-02-01T01:45:24;6.40;99.90
5560;DHT22;2803;47.916;8.074;2023-02-01T01:47:53;6.30;99.90
5560;DHT22;2803;47.916;8.074;2023-02-01T01:50:23;6.10;99.90
5560;DHT22;2803;47.916;8.074;2023-02-01T01:52:52;5.60;99.90
5560;DHT22;2803;47.916;8.074;2023-02-01T01:55:22;5.70;99.90
5560;DHT22;2803;47.916;8.074;2023-02-01T01:57:53;5.60;99.90
5560;DHT22;2803;47.916;8.074;2023-02-01T02:00:23;5.60;99.90
5560;DHT22;2803;47.916;8.074;2023-02-01T02:02:54;5.70;99.90
5560;DHT22;2803;47.916;8.074;2023-02-01T02:05:21;5.60;99.90
5560;DHT22;2803;47.916;8.074;2023-02-01T02:07:49;5.70;99.90
5560;DHT22;2803;47.916;8.074;2023-02-01T02:10:17;5.60;99.90
5560;DHT22;2803;47.916;8.074;2023-02-01T02:12:46;6.00;99.90
5560;DHT22;2803;47.916;8.074;2023-02-01T02:15:15;6.10;99.90
5560;DHT22;2803;47.916;8.074;2023-02-01T02:17:48;5.70;99.90
5560;DHT22;2803;47.916;8.074;2023-02-01T02:20:32;5.50;99.90
5560;DHT22;2803;47.916;8.074;2023-02-01T02:23:21;5.80;99.90
5560;DHT22;2803;47.916;8.074;2023-02-01T02:26:09;5.80;99.90
5560;DHT22;2803;47.916;8.074;2023-02-01T02:28:58;5.80;99.90
5560;DHT22;2803;47.916;8.074;2023-02-01T02:31:47;5.80;99.90
5560;DHT22;2803;47.916;8.074;2023-02-01T02:34:25;5.70;99.90
5560;DHT22;2803;47.916;8.074;2023-02-01T02:37:00;5.60;99.90
5560;DHT22;2803;47.916;8.074;2023-02-01T02:39:40;5.50;99.90
5560;DHT22;2803;47.916;8.074;2023-02-01T02:42:15;5.60;99.90
5560;DHT22;2803;47.916;8.074;2023-02-01T02:45:02;5.50;99.90
5560;DHT22;2803;47.916;8.074;2023-02-01T02:47:46;5.60;99.90
5560;DHT22;2803;47.916;8.074;2023-02-01T02:50:23;5.60;99.90
5560;DHT22;2803;47.916;8.074;2023-02-01T02:53:09;5.70;99.90
5560;DHT22;2803;47.916;8.074;2023-02-01T02:55:52;5.50;99.90
5560;DHT22;2803;47.916;8.074;2023-02-01T02:58:32;5.40;99.90
5560;DHT22;2803;47.916;8.074;2023-02-01T03:01:13;5.50;99.90
5560;DHT22;2803;47.916;8.074;2023-02-01T03:03:54;5.30;99.90
5560;DHT22;2803;47.916;8.074;2023-02-01T03:06:35;5.60;99.90
5560;DHT22;2803;47.916;8.074;2023-02-01T03:09:05;5.50;99.90
5560;DHT22;2803;47.916;8.074;2023-02-01T03:11:35;5.40;99.90
5560;DHT22;2803;47.916;8.074;2023-02-01T03:14:18;5.30;99.90
5560;DHT22;2803;47.916;8.074;2023-02-01T03:16:49;5.50;99.90
5560;DHT22;2803;47.916;8.074;2023-02-01T03:19:21;5.40;99.90
5560;DHT22;2803;47.916;8.074;2023-02-01T03:21:51;5.20;99.90
5560;DHT22;2803;47.916;8.074;2023-02-01T03:24:23;5.10;99.90
5560;DHT22;2803;47.916;8.074;2023-02-01T03:27:03;4.90;99.90
5560;DHT22;2803;47.916;8.074;2023-02-01T03:29:37;5.00;99.90
5560;DHT22;2803;47.916;8.074;2023-02-01T03:32:04;5.00;99.90
5560;DHT22;2803;47.916;8.074;2023-02-01T03:34:31;4.90;99.90
5560;DHT22;2803;47.916;8.074;2023-02-01T03:37:02;4.80;99.90
5560;DHT22;2803;47.916;8.074;2023-02-01T03:39:34;4.60;99.90
5560;DHT22;2803;47.916;8.074;2023-02-01T03:42:04;4.60;99.90
5560;DHT22;2803;47.916;8.074;2023-02-01T03:44:36;4.80;99.90
5560;DHT22;2803;47.916;8.074;2023-02-01T03:47:07;5.10;99.90
5560;DHT22;2803;47.916;8.074;2023-02-01T03:49:37;5.10;99.90
5560;DHT22;2803;47.916;8.074;2023-02-01T03:52:08;5.10;99.90
5560;DHT22;2803;47.916;8.074;2023-02-01T03:54:36;5.00;99.90
5560;DHT22;2803;47.916;8.074;2023-02-01T03:57:07;5.20;99.90
5560;DHT22;2803;47.916;8.074;2023-02-01T03:59:38;4.90;99.90
5560;DHT22;2803;47.916;8.074;2023-02-01T04:02:05;5.00;99.90
5560;DHT22;2803;47.916;8.074;2023-02-01T04:04:33;4.70;99.90
5560;DHT22;2803;47.916;8.074;2023-02-01T04:07:01;4.80;99.90
5560;DHT22;2803;47.916;8.074;2023-02-01T04:09:29;4.90;99.90
5560;DHT22;2803;47.916;8.074;2023-02-01T04:11:55;5.00;99.90
5560;DHT22;2803;47.916;8.074;2023-02-01T04:14:22;4.80;99.90
5560;DHT22;2803;47.916;8.074;2023-02-01T04:16:48;4.80;99.90
5560;DHT22;2803;47.916;8.074;2023-02-01T04:19:15;5.10;99.90
5560;DHT22;2803;47.916;8.074;2023-02-01T04:21:42;5.60;99.90
5560;DHT22;2803;47.916;8.074;2023-02-01T04:24:08;5.40;99.90
5560;DHT22;2803;47.916;8.074;2023-02-01T04:26:37;5.30;99.90
5560;DHT22;2803;47.916;8.074;2023-02-01T04:29:03;5.30;99.90
5560;DHT22;2803;47.916;8.074;2023-02-01T04:31:30;5.40;99.90
5560;DHT22;2803;47.916;8.074;2023-02-01T04:33:56;5.30;99.90
5560;DHT22;2803;47.916;8.074;2023-02-01T04:36:23;5.50;99.90
5560;DHT22;2803;47.916;8.074;2023-02-01T04:38:50;5.50;99.90
5560;DHT22;2803;47.916;8.074;2023-02-01T04:41:17;5.50;99.90
5560;DHT22;2803;47.916;8.074;2023-02-01T04:43:46;5.20;99.90
5560;DHT22;2803;47.916;8.074;2023-02-01T04:46:13;5.10;99.90
5560;DHT22;2803;47.916;8.074;2023-02-01T04:48:39;5.40;99.90
5560;DHT22;2803;47.916;8.074;2023-02-01T04:51:06;5.80;99.90
5560;DHT22;2803;47.916;8.074;2023-02-01T04:53:33;5.60;99.90
5560;DHT22;2803;47.916;8.074;2023-02-01T04:55:59;5.70;99.90
5560;DHT22;2803;47.916;8.074;2023-02-01T04:58:26;5.80;99.90
5560;DHT22;2803;47.916;8.074;2023-02-01T05:00:54;5.50;99.90
5560;DHT22;2803;47.916;8.074;2023-02-01T05:03:20;5.40;99.90
5560;DHT22;2803;47.916;8.074;2023-02-01T05:05:47;5.60;99.90
5560;DHT22;2803;47.916;8.074;2023-02-01T05:08:15;5.50;99.90
5560;DHT22;2803;47.916;8.074;2023-02-01T05:10:42;5.70;99.90
5560;DHT22;2803;47.916;8.074;2023-02-01T05:13:09;5.50;99.90
5560;DHT22;2803;47.916;8.074;2023-02-01T05:15:50;5.80;99.90
5560;DHT22;2803;47.916;8.074;2023-02-01T05:18:18;5.90;99.90
5560;DHT22;2803;47.916;8.074;2023-02-01T05:20:45;5.40;99.90
5560;DHT22;2803;47.916;8.074;2023-02-01T05:23:11;5.40;99.90
5560;DHT22;2803;47.916;8.074;2023-02-01T05:25:38;5.30;99.90
5560;DHT22;2803;47.916;8.074;2023-02-01T05:28:04;5.40;99.90
5560;DHT22;2803;47.916;8.074;2023-02-01T05:30:32;5.30;99.90
5560;DHT22;2803;47.916;8.074;2023-02-01T05:33:00;5.50;99.90
5560;DHT22;2803;47.916;8.074;2023-02-01T05:35:28;5.50;99.90
5560;DHT22;2803;47.916;8.074;2023-02-01T05:37:55;5.60;99.90
5560;DHT22;2803;47.916;8.074;2023-02-01T05:40:21;5.50;99.90
5560;DHT22;2803;47.916;8.074;2023-02-01T05:42:48;5.80;99.90
5560;DHT22;2803;47.916;8.074;2023-02-01T05:45:14;5.70;99.90
5560;DHT22;2803;47.916;8.074;2023-02-01T05:47:42;5.50;99.90
5560;DHT22;2803;47.916;8.074;2023-02-01T05:50:09;5.30;99.90
5560;DHT22;2803;47.916;8.074;2023-02-01T05:52:37;5.30;99.90
5560;DHT22;2803;47.916;8.074;2023-02-01T05:55:04;4.90;99.90
5560;DHT22;2803;47.916;8.074;2023-02-01T05:57:30;5.00;99.90
5560;DHT22;2803;47.916;8.074;2023-02-01T05:59:57;5.30;99.90
5560;DHT22;2803;47.916;8.074;2023-02-01T06:02:24;5.60;99.90
5560;DHT22;2803;47.916;8.074;2023-02-01T06:04:50;5.60;99.90
5560;DHT22;2803;47.916;8.074;2023-02-01T06:07:17;5.70;99.90
5560;DHT22;2803;47.916;8.074;2023-02-01T06:09:45;5.50;99.90
5560;DHT22;2803;47.916;8.074;2023-02-01T06:12:11;5.60;99.90
5560;DHT22;2803;47.916;8.074;2023-02-01T06:14:38;5.40;99.90
5560;DHT22;2803;47.916;8.074;2023-02-01T06:17:04;5.40;99.90
5560;DHT22;2803;47.916;8.074;2023-02-01T06:19:32;5.40;99.90
5560;DHT22;2803;47.916;8.074;2023-02-01T06:21:58;5.60;99.90
5560;DHT22;2803;47.916;8.074;2023-02-01T06:24:25;5.60;99.90
5560;DHT22;2803;47.916;8.074;2023-02-01T06:26:53;5.80;99.90
5560;DHT22;2803;47.916;8.074;2023-02-01T06:29:19;5.80;99.90
5560;DHT22;2803;47.916;8.074;2023-02-01T06:31:46;6.00;99.90
5560;DHT22;2803;47.916;8.074;2023-02-01T06:34:12;6.10;99.90
5560;DHT22;2803;47.916;8.074;2023-02-01T06:36:39;5.90;99.90
5560;DHT22;2803;47.916;8.074;2023-02-01T06:39:05;5.50;99.90
5560;DHT22;2803;47.916;8.074;2023-02-01T06:41:32;5.40;99.90
5560;DHT22;2803;47.916;8.074;2023-02-01T06:44:01;5.50;99.90
5560;DHT22;2803;47.916;8.074;2023-02-01T06:46:28;5.70;99.90
5560;DHT22;2803;47.916;8.074;2023-02-01T06:48:54;5.70;99.90
5560;DHT22;2803;47.916;8.074;2023-02-01T06:51:23;5.70;99.90
5560;DHT22;2803;47.916;8.074;2023-02-01T06:53:50;5.40;99.90
5560;DHT22;2803;47.916;8.074;2023-02-01T06:56:17;5.50;99.90
5560;DHT22;2803;47.916;8.074;2023-02-01T06:58:44;5.70;99.90
5560;DHT22;2803;47.916;8.074;2023-02-01T07:01:13;5.90;99.90
5560;DHT22;2803;47.916;8.074;2023-02-01T07:03:40;5.90;99.90
5560;DHT22;2803;47.916;8.074;2023-02-01T07:06:07;6.00;99.90
5560;DHT22;2803;47.916;8.074;2023-02-01T07:08:35;6.10;99.90
5560;DHT22;2803;47.916;8.074;2023-02-01T07:11:02;5.90;99.90
5560;DHT22;2803;47.916;8.074;2023-02-01T07:13:29;5.90;99.90
5560;DHT22;2803;47.916;8.074;2023-02-01T07:15:58;6.10;99.90
5560;DHT22;2803;47.916;8.074;2023-02-01T07:18:26;6.00;99.90
5560;DHT22;2803;47.916;8.074;2023-02-01T07:20:53;6.50;99.90
5560;DHT22;2803;47.916;8.074;2023-02-01T07:23:20;6.50;99.90
5560;DHT22;2803;47.916;8.074;2023-02-01T07:25:46;6.40;99.90
5560;DHT22;2803;47.916;8.074;2023-02-01T07:28:13;6.30;99.90
5560;DHT22;2803;47.916;8.074;2023-02-01T07:30:40;6.10;99.90
5560;DHT22;2803;47.916;8.074;2023-02-01T07:33:07;6.20;99.90
5560;DHT22;2803;47.916;8.074;2023-02-01T07:35:35;6.00;99.90
5560;DHT22;2803;47.916;8.074;2023-02-01T07:38:01;6.10;99.90
5560;DHT22;2803;47.916;8.074;2023-02-01T07:40:28;5.70;99.90
5560;DHT22;2803;47.916;8.074;2023-02-01T07:42:55;5.90;99.90
5560;DHT22;2803;47.916;8.074;2023-02-01T07:45:22;5.80;99.90
5560;DHT22;2803;47.916;8.074;2023-02-01T07:47:51;5.70;99.90
5560;DHT22;2803;47.916;8.074;2023-02-01T07:50:18;5.80;99.90
5560;DHT22;2803;47.916;8.074;2023-02-01T07:52:46;5.80;99.90
5560;DHT22;2803;47.916;8.074;2023-02-01T07:55:12;5.50;99.90
5560;DHT22;2803;47.916;8.074;2023-02-01T07:57:39;5.60;99.90
5560;DHT22;2803;47.916;8.074;2023-02-01T08:00:06;5.70;99.90
5560;DHT22;2803;47.916;8.074;2023-02-01T08:02:47;5.40;99.90
5560;DHT22;2803;47.916;8.074;2023-02-01T08:05:13;5.60;99.90
5560;DHT22;2803;47.916;8.074;2023-02-01T08:07:40;5.30;99.90
5560;DHT22;2803;47.916;8.074;2023-02-01T08:10:08;5.50;99.90
5560;DHT22;2803;47.916;8.074;2023-02-01T08:12:36;5.60;99.90
5560;DHT22;2803;47.916;8.074;2023-02-01T08:15:04;5.90;99.90
5560;DHT22;2803;47.916;8.074;2023-02-01T08:17:30;5.60;99.90
5560;DHT22;2803;47.916;8.074;2023-02-01T08:19:57;5.60;99.90
5560;DHT22;2803;47.916;8.074;2023-02-01T08:22:23;5.60;99.90
5560;DHT22;2803;47.916;8.074;2023-02-01T08:24:50;5.70;99.90
5560;DHT22;2803;47.916;8.074;2023-02-01T08:27:24;6.00;99.90
5560;DHT22;2803;47.916;8.074;2023-02-01T08:29:51;5.90;99.90
5560;DHT22;2803;47.916;8.074;2023-02-01T08:32:18;6.50;99.90
5560;DHT22;2803;47.916;8.074;2023-02-01T08:34:45;6.20;99.90
5560;DHT22;2803;47.916;8.074;2023-02-01T08:37:11;6.10;99.90
5560;DHT22;2803;47.916;8.074;2023-02-01T08:39:38;6.30;99.90
5560;DHT22;2803;47.916;8.074;2023-02-01T08:42:04;6.40;99.90
5560;DHT22;2803;47.916;8.074;2023-02-01T08:44:46;6.40;99.90
5560;DHT22;2803;47.916;8.074;2023-02-01T08:47:13;6.40;99.90
5560;DHT22;2803;47.916;8.074;2023-02-01T08:49:40;6.20;99.90
5560;DHT22;2803;47.916;8.074;2023-02-01T08:52:06;6.10;99.90
5560;DHT22;2803;47.916;8.074;2023-02-01T08:54:33;6.00;99.90
5560;DHT22;2803;47.916;8.074;2023-02-01T08:56:59;6.00;99.90
5560;DHT22;2803;47.916;8.074;2023-02-01T08:59:26;6.20;99.90
5560;DHT22;2803;47.916;8.074;2023-02-01T09:01:54;5.80;99.90
5560;DHT22;2803;47.916;8.074;2023-02-01T09:04:21;6.10;99.90
5560;DHT22;2803;47.916;8.074;2023-02-01T09:06:48;5.90;99.90
5560;DHT22;2803;47.916;8.074;2023-02-01T09:09:14;6.00;99.90
5560;DHT22;2803;47.916;8.074;2023-02-01T09:11:41;6.10;99.90
5560;DHT22;2803;47.916;8.074;2023-02-01T09:14:07;6.10;99.90
5560;DHT22;2803;47.916;8.074;2023-02-01T09:16:34;6.20;99.90
5560;DHT22;2803;47.916;8.074;2023-02-01T09:19:02;6.10;99.90
5560;DHT22;2803;47.916;8.074;2023-02-01T09:21:28;6.10;99.90
5560;DHT22;2803;47.916;8.074;2023-02-01T09:23:55;6.20;99.90
5560;DHT22;2803;47.916;8.074;2023-02-01T09:26:22;6.30;99.90
5560;DHT22;2803;47.916;8.074;2023-02-01T09:28:48;6.80;99.90
5560;DHT22;2803;47.916;8.074;2023-02-01T09:31:15;6.90;99.90
5560;DHT22;2803;47.916;8.074;2023-02-01T09:33:41;7.20;99.90
5560;DHT22;2803;47.916;8.074;2023-02-01T09:36:09;7.60;99.90
5560;DHT22;2803;47.916;8.074;2023-02-01T09:38:36;8.00;99.90
5560;DHT22;2803;47.916;8.074;2023-02-01T09:41:10;8.30;99.90
5560;DHT22;2803;47.916;8.074;2023-02-01T09:43:53;8.10;99.90
5560;DHT22;2803;47.916;8.074;2023-02-01T09:46:24;8.70;99.90
5560;DHT22;2803;47.916;8.074;2023-02-01T09:48:54;9.10;99.90
5560;DHT22;2803;47.916;8.074;2023-02-01T09:51:25;9.20;99.90
5560;DHT22;2803;47.916;8.074;2023-02-01T09:53:59;9.30;99.90
5560;DHT22;2803;47.916;8.074;2023-02-01T09:56:34;9.70;99.90
5560;DHT22;2803;47.916;8.074;2023-02-01T09:59:09;9.50;99.90
5560;DHT22;2803;47.916;8.074;2023-02-01T10:01:37;9.40;99.90
5560;DHT22;2803;47.916;8.074;2023-02-01T10:04:06;9.50;99.90
5560;DHT22;2803;47.916;8.074;2023-02-01T10:06:44;9.00;99.90
5560;DHT22;2803;47.916;8.074;2023-02-01T10:09:20;8.60;99.90
5560;DHT22;2803;47.916;8.074;2023-02-01T10:12:01;8.20;99.90
5560;DHT22;2803;47.916;8.074;2023-02-01T10:14:44;7.40;99.90
5560;DHT22;2803;47.916;8.074;2023-02-01T10:17:24;7.10;99.90
5560;DHT22;2803;47.916;8.074;2023-02-01T10:20:03;6.80;99.90
5560;DHT22;2803;47.916;8.074;2023-02-01T10:22:40;7.10;99.90
5560;DHT22;2803;47.916;8.074;2023-02-01T10:25:14;7.50;99.90
5560;DHT22;2803;47.916;8.074;2023-02-01T10:27:44;7.60;99.90
5560;DHT22;2803;47.916;8.074;2023-02-01T10:30:18;7.30;99.90
5560;DHT22;2803;47.916;8.074;2023-02-01T10:32:47;7.20;99.90
5560;DHT22;2803;47.916;8.074;2023-02-01T10:35:17;8.10;99.90
5560;DHT22;2803;47.916;8.074;2023-02-01T10:37:45;8.30;99.90
5560;DHT22;2803;47.916;8.074;2023-02-01T10:40:17;8.50;99.90
5560;DHT22;2803;47.916;8.074;2023-02-01T10:42:47;8.30;99.90
5560;DHT22;2803;47.916;8.074;2023-02-01T10:45:17;7.60;99.90
5560;DHT22;2803;47.916;8.074;2023-02-01T10:47:44;7.40;99.90
5560;DHT22;2803;47.916;8.074;2023-02-01T10:50:18;7.20;99.90
5560;DHT22;2803;47.916;8.074;2023-02-01T10:52:50;6.40;99.90
5560;DHT22;2803;47.916;8.074;2023-02-01T10:55:29;6.60;99.90
5560;DHT22;2803;47.916;8.074;2023-02-01T10:57:57;6.60;99.90
5560;DHT22;2803;47.916;8.074;2023-02-01T11:00:24;6.40;99.90
5560;DHT22;2803;47.916;8.074;2023-02-01T11:02:51;6.30;99.90
5560;DHT22;2803;47.916;8.074;2023-02-01T11:05:18;6.40;99.90
5560;DHT22;2803;47.916;8.074;2023-02-01T11:07:51;6.60;99.90
5560;DHT22;2803;47.916;8.074;2023-02-01T11:10:35;6.40;99.90
5560;DHT22;2803;47.916;8.074;2023-02-01T11:13:03;6.30;99.90
5560;DHT22;2803;47.916;8.074;2023-02-01T11:15:30;6.20;99.90
5560;DHT22;2803;47.916;8.074;2023-02-01T11:18:14;6.40;99.90
5560;DHT22;2803;47.916;8.074;2023-02-01T11:20:41;6.50;99.90
5560;DHT22;2803;47.916;8.074;2023-02-01T11:23:14;6.40;99.90
5560;DHT22;2803;47.916;8.074;2023-02-01T11:25:49;6.10;99.90
5560;DHT22;2803;47.916;8.074;2023-02-01T11:28:16;5.60;99.90
5560;DHT22;2803;47.916;8.074;2023-02-01T11:30:45;5.80;99.90
5560;DHT22;2803;47.916;8.074;2023-02-01T11:33:15;5.90;99.90
5560;DHT22;2803;47.916;8.074;2023-02-01T11:35:42;6.10;99.90
5560;DHT22;2803;47.916;8.074;2023-02-01T11:38:17;6.10;99.90
5560;DHT22;2803;47.916;8.074;2023-02-01T11:40:45;6.00;99.90
5560;DHT22;2803;47.916;8.074;2023-02-01T11:43:16;6.10;99.90
5560;DHT22;2803;47.916;8.074;2023-02-01T11:45:54;5.90;99.90
5560;DHT22;2803;47.916;8.074;2023-02-01T11:48:23;6.10;99.90
5560;DHT22;2803;47.916;8.074;2023-02-01T11:51:00;6.40;99.90
5560;DHT22;2803;47.916;8.074;2023-02-01T11:53:42;6.10;99.90
5560;DHT22;2803;47.916;8.074;2023-02-01T11:56:19;5.90;99.90
5560;DHT22;2803;47.916;8.074;2023-02-01T11:58:59;5.90;99.90
5560;DHT22;2803;47.916;8.074;2023-02-01T12:01:40;6.00;99.90
5560;DHT22;2803;47.916;8.074;2023-02-01T12:04:24;5.80;99.90
5560;DHT22;2803;47.916;8.074;2023-02-01T12:06:59;5.80;99.90
5560;DHT22;2803;47.916;8.074;2023-02-01T12:09:44;5.60;99.90
5560;DHT22;2803;47.916;8.074;2023-02-01T12:12:19;5.80;99.90
5560;DHT22;2803;47.916;8.074;2023-02-01T12:15:08;5.70;99.90
5560;DHT22;2803;47.916;8.074;2023-02-01T12:17:52;6.10;99.90
5560;DHT22;2803;47.916;8.074;2023-02-01T12:20:28;6.00;99.90
5560;DHT22;2803;47.916;8.074;2023-02-01T12:23:06;6.10;99.90
5560;DHT22;2803;47.916;8.074;2023-02-01T12:25:46;6.00;99.90
5560;DHT22;2803;47.916;8.074;2023-02-01T12:31:15;6.00;99.90
5560;DHT22;2803;47.916;8.074;2023-02-01T12:34:00;6.00;99.90
5560;DHT22;2803;47.916;8.074;2023-02-01T12:36:38;5.90;99.90
5560;DHT22;2803;47.916;8.074;2023-02-01T12:39:14;5.70;99.90
5560;DHT22;2803;47.916;8.074;2023-02-01T12:41:50;5.90;99.90
5560;DHT22;2803;47.916;8.074;2023-02-01T12:44:27;6.40;99.90
5560;DHT22;2803;47.916;8.074;2023-02-01T12:46:57;6.30;99.90
5560;DHT22;2803;47.916;8.074;2023-02-01T12:49:30;6.00;99.90
5560;DHT22;2803;47.916;8.074;2023-02-01T12:52:02;6.10;99.90
5560;DHT22;2803;47.916;8.074;2023-02-01T12:54:36;5.80;99.90
5560;DHT22;2803;47.916;8.074;2023-02-01T12:57:11;5.60;99.90
5560;DHT22;2803;47.916;8.074;2023-02-01T12:59:41;5.80;99.90
5560;DHT22;2803;47.916;8.074;2023-02-01T13:02:14;6.10;99.90
5560;DHT22;2803;47.916;8.074;2023-02-01T13:04:52;5.90;99.90
5560;DHT22;2803;47.916;8.074;2023-02-01T13:07:24;6.00;99.90
5560;DHT22;2803;47.916;8.074;2023-02-01T13:09:56;5.80;99.90
5560;DHT22;2803;47.916;8.074;2023-02-01T13:12:35;5.90;99.90
5560;DHT22;2803;47.916;8.074;2023-02-01T13:15:05;5.80;99.90
5560;DHT22;2803;47.916;8.074;2023-02-01T13:17:37;5.50;99.90
5560;DHT22;2803;47.916;8.074;2023-02-01T13:20:10;5.40;99.90
5560;DHT22;2803;47.916;8.074;2023-02-01T13:22:42;5.80;99.90
5560;DHT22;2803;47.916;8.074;2023-02-01T13:25:13;6.00;99.90
5560;DHT22;2803;47.916;8.074;2023-02-01T13:27:41;5.60;99.90
5560;DHT22;2803;47.916;8.074;2023-02-01T13:30:13;5.60;99.90
5560;DHT22;2803;47.916;8.074;2023-02-01T13:32:58;5.80;99.90
5560;DHT22;2803;47.916;8.074;2023-02-01T13:35:40;5.30;99.90
5560;DHT22;2803;47.916;8.074;2023-02-01T13:41:07;5.60;99.90
5560;DHT22;2803;47.916;8.074;2023-02-01T13:43:38;5.50;99.90
5560;DHT22;2803;47.916;8.074;2023-02-01T13:46:09;5.50;99.90
5560;DHT22;2803;47.916;8.074;2023-02-01T13:48:40;5.60;99.90
5560;DHT22;2803;47.916;8.074;2023-02-01T13:51:07;5.80;99.90
5560;DHT22;2803;47.916;8.074;2023-02-01T13:53:35;5.70;99.90
5560;DHT22;2803;47.916;8.074;2023-02-01T13:56:05;5.90;99.90
5560;DHT22;2803;47.916;8.074;2023-02-01T13:58:35;5.70;99.90
5560;DHT22;2803;47.916;8.074;2023-02-01T14:04:00;5.50;99.90
5560;DHT22;2803;47.916;8.074;2023-02-01T14:06:42;5.50;99.90
5560;DHT22;2803;47.916;8.074;2023-02-01T14:09:15;5.40;99.90
5560;DHT22;2803;47.916;8.074;2023-02-01T14:11:46;5.20;99.90
5560;DHT22;2803;47.916;8.074;2023-02-01T14:23:02;5.30;99.90
5560;DHT22;2803;47.916;8.074;2023-02-01T14:25:32;5.40;99.90
5560;DHT22;2803;47.916;8.074;2023-02-01T14:27:59;5.30;99.90
5560;DHT22;2803;47.916;8.074;2023-02-01T14:30:27;5.40;99.90
5560;DHT22;2803;47.916;8.074;2023-02-01T14:32:54;5.20;99.90
5560;DHT22;2803;47.916;8.074;2023-02-01T14:35:24;5.10;99.90
5560;DHT22;2803;47.916;8.074;2023-02-01T14:37:53;5.00;99.90
5560;DHT22;2803;47.916;8.074;2023-02-01T14:40:26;5.00;99.90
5560;DHT22;2803;47.916;8.074;2023-02-01T14:42:54;5.40;99.90
5560;DHT22;2803;47.916;8.074;2023-02-01T14:51:16;5.50;99.90
5560;DHT22;2803;47.916;8.074;2023-02-01T14:53:44;5.70;99.90
5560;DHT22;2803;47.916;8.074;2023-02-01T14:56:15;5.30;99.90
5560;DHT22;2803;47.916;8.074;2023-02-01T14:58:49;5.10;99.90
5560;DHT22;2803;47.916;8.074;2023-02-01T15:01:21;5.30;99.90
5560;DHT22;2803;47.916;8.074;2023-02-01T15:03:56;5.00;99.90
5560;DHT22;2803;47.916;8.074;2023-02-01T15:06:30;5.10;99.90
5560;DHT22;2803;47.916;8.074;2023-02-01T15:09:00;5.30;99.90
5560;DHT22;2803;47.916;8.074;2023-02-01T15:11:29;5.30;99.90
5560;DHT22;2803;47.916;8.074;2023-02-01T15:13:56;5.10;99.90
5560;DHT22;2803;47.916;8.074;2023-02-01T15:16:25;5.40;99.90
5560;DHT22;2803;47.916;8.074;2023-02-01T15:19:07;5.30;99.90
5560;DHT22;2803;47.916;8.074;2023-02-01T15:21:43;5.10;99.90
5560;DHT22;2803;47.916;8.074;2023-02-01T15:24:12;5.10;99.90
5560;DHT22;2803;47.916;8.074;2023-02-01T15:26:40;5.20;99.90
5560;DHT22;2803;47.916;8.074;2023-02-01T15:29:11;5.10;99.90
5560;DHT22;2803;47.916;8.074;2023-02-01T15:31:39;5.40;99.90
5560;DHT22;2803;47.916;8.074;2023-02-01T15:34:07;5.70;99.90
5560;DHT22;2803;47.916;8.074;2023-02-01T15:36:34;5.60;99.90
5560;DHT22;2803;47.916;8.074;2023-02-01T15:39:18;5.50;99.90
5560;DHT22;2803;47.916;8.074;2023-02-01T15:41:52;5.60;99.90
5560;DHT22;2803;47.916;8.074;2023-02-01T15:44:28;5.40;99.90
5560;DHT22;2803;47.916;8.074;2023-02-01T15:46:56;5.40;99.90
5560;DHT22;2803;47.916;8.074;2023-02-01T15:49:27;5.40;99.90
5560;DHT22;2803;47.916;8.074;2023-02-01T15:51:55;5.30;99.90
5560;DHT22;2803;47.916;8.074;2023-02-01T15:54:25;5.50;99.90
5560;DHT22;2803;47.916;8.074;2023-02-01T15:56:55;5.40;99.90
5560;DHT22;2803;47.916;8.074;2023-02-01T15:59:25;5.70;99.90
5560;DHT22;2803;47.916;8.074;2023-02-01T16:01:55;5.60;99.90
5560;DHT22;2803;47.916;8.074;2023-02-01T16:04:23;5.70;99.90
5560;DHT22;2803;47.916;8.074;2023-02-01T16:06:52;5.70;99.90
5560;DHT22;2803;47.916;8.074;2023-02-01T16:09:20;5.60;99.90
5560;DHT22;2803;47.916;8.074;2023-02-01T16:11:54;5.80;99.90
5560;DHT22;2803;47.916;8.074;2023-02-01T16:14:22;5.60;99.90
5560;DHT22;2803;47.916;8.074;2023-02-01T16:16:49;5.40;99.90
5560;DHT22;2803;47.916;8.074;2023-02-01T16:19:15;5.40;99.90
5560;DHT22;2803;47.916;8.074;2023-02-01T16:21:42;5.40;99.90
5560;DHT22;2803;47.916;8.074;2023-02-01T16:24:10;5.20;99.90
5560;DHT22;2803;47.916;8.074;2023-02-01T16:26:37;5.60;99.90
5560;DHT22;2803;47.916;8.074;2023-02-01T16:29:05;5.60;99.90
5560;DHT22;2803;47.916;8.074;2023-02-01T16:31:34;5.70;99.90
5560;DHT22;2803;47.916;8.074;2023-02-01T16:34:01;5.50;99.90
5560;DHT22;2803;47.916;8.074;2023-02-01T16:36:27;5.80;99.90
5560;DHT22;2803;47.916;8.074;2023-02-01T16:38:54;5.30;99.90
5560;DHT22;2803;47.916;8.074;2023-02-01T16:41:22;5.10;99.90
5560;DHT22;2803;47.916;8.074;2023-02-01T16:43:50;5.20;99.90
5560;DHT22;2803;47.916;8.074;2023-02-01T16:46:20;5.00;99.90
5560;DHT22;2803;47.916;8.074;2023-02-01T16:48:52;4.90;99.90
5560;DHT22;2803;47.916;8.074;2023-02-01T16:51:19;4.90;99.90
5560;DHT22;2803;47.916;8.074;2023-02-01T16:53:46;5.20;99.90
5560;DHT22;2803;47.916;8.074;2023-02-01T16:56:14;5.30;99.90
5560;DHT22;2803;47.916;8.074;2023-02-01T16:58:41;5.40;99.90
5560;DHT22;2803;47.916;8.074;2023-02-01T17:01:09;5.60;99.90